Terminal Aerodrome Forecast
Issued by NWS

Home | Current Version | Previous Version | Text Only | Print | Product List | Glossary On
Versions: 1 2 3 4 5 6 7 8 9 10 11 12 13 14
627
FTUS46 KPDT 261733
TAFYKM
TAF
KYKM 261733Z 2618/2718 31010KT P6SM FEW080 BKN200
     FM270000 31014G24KT P6SM FEW060 BKN200
     FM271000 31010KT P6SM FEW060 BKN200=

USA.gov is the U.S. government's official web portal to all federal, state and local government web resources and services.